Olympic National Park, WA

06:31 AM PDT am 21. Oktober 2014 (GMT -0700)
Whidbey Island Naval Air Station | Change Station
CLOSE
Current Station
Flughafen
Location: Whidbey Island,
Höhe: 46 ft
Wetterstationen in der Umgebung
aktive Warnung: Areal Flood Watch

Höhe 46 ft 48.35 °N, 122.66 °W | Updated 35 minutes ago

Bedeckt
Bedeckt
57 °F
gefühlte 57 °F
N
15
Wind Wechselnd Wind aus Süd-Südost

Heute
Max. -- | schwach -- °F
--% Regenrisiko
Gestern
Max. -- | schwach -- °F
Precip. -- inch
7:42 AM 6:13 PM
Letztes Viertel, 5% visible
Druck 29.82 inch
Sichtweite 10.0 Meilen
Wolken Few 900 ft
Wolkig 1500 ft
Wolkig 7500 ft
Taupunkt 52 °F
Feuchtigkeit 83%
Regen 0.06 inch
Schneehöhe Nicht verfügbar..
UV 0 von 12
Pollen .40 von 12
Luftqualität Nicht verfügbar..
Flu Activity Nicht verfügbar..
METAR KNUW 211256Z 15013KT 10SM FEW009 BKN015 BKN075 14/11 A2981 RMK AO2 SLP097 T01390111 $

More Conditions Fewer Conditions

Druck 29.82 inch
Sichtweite 10.0 Meilen
Wolken Few 900 ft
Wolkig 1500 ft
Wolkig 7500 ft
Taupunkt 52 °F
Feuchtigkeit 83%
Regen 0.06 inch
Schneehöhe Nicht verfügbar..
UV 0 von 12
Pollen .40 von 12
Luftqualität Nicht verfügbar..
Flu Activity Nicht verfügbar..
METAR KNUW 211256Z 15013KT 10SM FEW009 BKN015 BKN075 14/11 A2981 RMK AO2 SLP097 T01390111 $

More Conditions Fewer Conditions

10-Day Weather Forecast

Almanac

Astronomie

Oct. 21, 2014 Aufgang Untergang
Genaue Zeit 07:42 PDT 18:13 PDT
Bürgerliche Dämmerung 07:10 PDT 18:45 PDT
Nautische Dämmerung 06:34 PDT 19:21 PDT
Astronomische Dämmerung 05:58 PDT 19:57 PDT
Mond 05:22 PDT 17:18 PDT
Länge des sichtbaren Lichts 11h 34m
Tageslänge
10h 31m
Tomorrow will be 3m 18s shorter.
Letztes Viertel, 5% of the Moon is Illuminated
Heute
Letztes Viertel
Okt 23
Neu
Okt 30
Erstes Viertel
Nov 6
Vollmond
Nov 14
Letztes Viertel

Heutige Rekorde

State Highs State Lows

Community

WunderPhotos

Upload Photos

1,763,662 Fotos hochgeladen!

Nearby

Schneehöhe

Station Depth Höhe
Dungeness 0 in 4100 ft
Alpine Meadows 0 in 3500 ft
Elbow Lake 0 in 3200 ft
Mf Nooksack 1 in 4980 ft
Skookum Creek 0 in 3920 ft

Erdbebenaktivität

Stadt Distance Mag. Time & Date
No recent earthquake activity has been reported nearby.
Minimum magnitude displayed is 2.5.

küstennahe Wassertemperaturen

Ort Temperatur
Port Angeles, WA 57.0 °F
Friday Harbor, WA 51.1 °F
Port Townsend, WA 52.0 °F
La Push, WA 54.0 °F

Wetterstationen in der Umgebung